Time;durP1;ratioP1;P1;durP2;ratioP2;P2;SDS_P1;SDS_P2;PMS_P1;PMS_P2;Temp;Humidity;BMP_temperature;BMP_pressure;BME280_temperature;BME280_humidity;BME280_pressure;Samples;Min_cycle;Max_cycle;Signal;HPM_P1;HPM_P2
2023/09/13 00:01:59;;;;;;;22.10;19.97;;;17.70;99.90;;;;;;5049226;28;20517;-62
2023/09/13 00:04:27;;;;;;;23.13;21.03;;;17.70;99.90;;;;;;5059431;28;20465;-61
2023/09/13 00:06:57;;;;;;;23.70;21.60;;;17.70;99.90;;;;;;5063881;28;20826;-61
2023/09/13 00:09:25;;;;;;;24.23;21.80;;;17.70;99.90;;;;;;5064780;28;20473;-64
2023/09/13 00:11:53;;;;;;;22.47;20.37;;;17.70;99.90;;;;;;5059489;28;20569;-61
2023/09/13 00:14:21;;;;;;;23.60;21.50;;;17.70;99.90;;;;;;5056631;28;20560;-61
2023/09/13 00:16:50;;;;;;;23.90;21.77;;;17.70;99.90;;;;;;5063396;28;20585;-61
2023/09/13 00:19:18;;;;;;;25.00;22.87;;;17.70;99.90;;;;;;5065528;28;20539;-62
2023/09/13 00:21:46;;;;;;;22.13;20.07;;;17.70;99.90;;;;;;5061995;28;21013;-62
2023/09/13 00:24:15;;;;;;;23.30;21.30;;;17.70;99.90;;;;;;5063908;28;20469;-62
2023/09/13 00:26:43;;;;;;;23.63;21.50;;;17.70;99.90;;;;;;5063976;28;20582;-62
2023/09/13 00:29:11;;;;;;;23.37;21.27;;;17.70;99.90;;;;;;5064516;28;20470;-62
2023/09/13 00:31:39;;;;;;;24.50;22.30;;;17.70;99.90;;;;;;5057865;28;20932;-62
2023/09/13 00:34:08;;;;;;;23.70;21.57;;;17.70;99.90;;;;;;5052877;28;20488;-62
2023/09/13 00:36:36;;;;;;;22.20;20.20;;;17.70;99.90;;;;;;5050598;28;20493;-61
2023/09/13 00:39:05;;;;;;;21.90;20.10;;;17.70;99.90;;;;;;5053962;28;20916;-61
2023/09/13 00:41:35;;;;;;;22.93;21.00;;;17.70;99.90;;;;;;5052411;28;21071;-62
2023/09/13 00:44:03;;;;;;;22.70;20.60;;;17.70;99.90;;;;;;5054853;28;21128;-62
2023/09/13 00:46:31;;;;;;;23.47;21.37;;;17.70;99.90;;;;;;5052605;28;20600;-62
2023/09/13 00:48:59;;;;;;;23.80;21.67;;;17.70;99.90;;;;;;5053897;28;20469;-61
2023/09/13 00:51:28;;;;;;;24.60;22.30;;;17.70;99.90;;;;;;5049553;28;20646;-61
2023/09/13 00:53:56;;;;;;;23.73;21.47;;;17.70;99.90;;;;;;5053647;28;20582;-61
2023/09/13 00:56:26;;;;;;;24.13;21.93;;;17.70;99.90;;;;;;5052960;28;20503;-62
2023/09/13 00:58:56;;;;;;;24.60;22.20;;;17.70;99.90;;;;;;5052896;28;21508;-62
2023/09/13 01:01:27;;;;;;;24.37;22.37;;;17.70;99.90;;;;;;5052562;28;20486;-62
2023/09/13 01:03:58;;;;;;;23.30;21.00;;;17.70;99.90;;;;;;5059335;28;20563;-62
2023/09/13 01:06:27;;;;;;;23.97;21.77;;;17.70;99.90;;;;;;5054760;28;20608;-62
2023/09/13 01:08:55;;;;;;;24.07;21.73;;;17.70;99.90;;;;;;5055721;28;20481;-61
2023/09/13 01:11:23;;;;;;;24.37;22.03;;;17.80;99.90;;;;;;5054269;28;20510;-62
2023/09/13 01:13:51;;;;;;;23.87;21.57;;;17.80;99.90;;;;;;5060231;28;20903;-61
2023/09/13 01:16:32;;;;;;;25.27;22.73;;;17.80;99.90;;;;;;5058695;28;20543;-60
2023/09/13 01:19:06;;;;;;;26.20;23.60;;;17.80;99.90;;;;;;5054814;28;20477;-62
2023/09/13 01:21:49;;;;;;;26.03;23.53;;;17.80;99.90;;;;;;5058247;28;22877;-62
2023/09/13 01:24:43;;;;;;;27.13;24.60;;;17.80;99.90;;;;;;5054906;28;20489;-62
2023/09/13 01:27:25;;;;;;;25.87;23.43;;;17.80;99.90;;;;;;5054428;28;20486;-62
2023/09/13 01:29:57;;;;;;;27.13;24.40;;;17.80;99.90;;;;;;5049065;28;20910;-63
2023/09/13 01:32:25;;;;;;;27.37;24.63;;;17.90;99.90;;;;;;5051624;28;21087;-62
2023/09/13 01:34:53;;;;;;;27.40;24.70;;;17.90;99.90;;;;;;5055125;28;21512;-61
2023/09/13 01:37:21;;;;;;;26.90;24.27;;;17.90;99.90;;;;;;5055155;28;21052;-62
2023/09/13 01:39:49;;;;;;;26.40;23.70;;;17.90;99.90;;;;;;5055058;28;20477;-62
2023/09/13 01:42:18;;;;;;;25.67;23.07;;;17.90;99.90;;;;;;5051026;28;20540;-62
2023/09/13 01:44:47;;;;;;;27.60;24.87;;;17.90;99.90;;;;;;5054926;28;20492;-62
2023/09/13 01:47:18;;;;;;;27.80;25.10;;;17.90;99.90;;;;;;5052900;28;20954;-61
2023/09/13 01:49:47;;;;;;;27.60;24.90;;;17.90;99.90;;;;;;5060470;28;22409;-62
2023/09/13 01:52:15;;;;;;;26.43;23.73;;;17.90;99.90;;;;;;5049334;28;20539;-62
2023/09/13 01:54:43;;;;;;;25.90;23.13;;;17.90;99.90;;;;;;5049939;28;20840;-62
2023/09/13 01:57:11;;;;;;;26.27;22.50;;;18.00;99.90;;;;;;5053304;28;20557;-61
2023/09/13 01:59:39;;;;;;;25.90;23.20;;;18.00;99.90;;;;;;5057753;28;20547;-60
2023/09/13 02:02:07;;;;;;;25.73;23.10;;;18.00;99.90;;;;;;5051277;28;20565;-62
2023/09/13 02:04:36;;;;;;;24.67;22.17;;;17.90;99.90;;;;;;5054643;28;20494;-62
2023/09/13 02:07:05;;;;;;;24.40;21.90;;;17.90;99.90;;;;;;5055828;28;20485;-60
2023/09/13 02:09:33;;;;;;;24.53;21.97;;;17.90;99.90;;;;;;5058122;28;20546;-61
2023/09/13 02:12:01;;;;;;;23.70;21.30;;;17.90;99.90;;;;;;5057890;28;20543;-62
2023/09/13 02:14:29;;;;;;;23.20;20.90;;;17.90;99.90;;;;;;5060233;28;20509;-62
2023/09/13 02:16:59;;;;;;;23.90;21.30;;;17.90;99.90;;;;;;5056361;28;20469;-61
2023/09/13 02:19:28;;;;;;;23.43;20.60;;;17.90;99.90;;;;;;5056435;28;20469;-62
2023/09/13 02:21:57;;;;;;;24.93;22.30;;;18.00;99.90;;;;;;5053428;28;21143;-61
2023/09/13 02:24:25;;;;;;;23.97;21.47;;;18.00;99.90;;;;;;5055075;28;20479;-62
2023/09/13 02:26:56;;;;;;;23.43;21.13;;;18.00;99.90;;;;;;5059425;28;20492;-62
2023/09/13 02:29:25;;;;;;;21.53;19.43;;;17.90;99.90;;;;;;5059804;28;20462;-61
2023/09/13 02:31:53;;;;;;;21.33;19.27;;;17.90;99.90;;;;;;5061022;28;20505;-62
2023/09/13 02:34:22;;;;;;;22.73;20.33;;;17.90;99.90;;;;;;5057475;28;20499;-62
2023/09/13 02:36:50;;;;;;;22.00;19.80;;;18.00;99.90;;;;;;5055176;28;20462;-62
2023/09/13 02:39:33;;;;;;;21.20;19.20;;;18.00;99.90;;;;;;5061758;28;20468;-62
2023/09/13 02:42:01;;;;;;;21.00;18.90;;;18.00;99.90;;;;;;5061490;28;20552;-62
2023/09/13 02:44:30;;;;;;;21.83;19.53;;;18.00;99.90;;;;;;5059256;28;20477;-62
2023/09/13 02:46:58;;;;;;;24.23;20.57;;;18.00;99.90;;;;;;5051759;28;20481;-62
2023/09/13 02:49:26;;;;;;;20.57;18.67;;;17.90;99.90;;;;;;5057389;28;20462;-62
2023/09/13 02:51:54;;;;;;;20.13;18.03;;;17.90;99.90;;;;;;5056479;28;20485;-62
2023/09/13 02:54:23;;;;;;;20.40;18.30;;;17.90;99.90;;;;;;5056183;28;20969;-62
2023/09/13 02:56:52;;;;;;;20.07;18.13;;;17.90;99.90;;;;;;5059847;28;20485;-61
2023/09/13 02:59:21;;;;;;;21.57;19.37;;;17.90;99.90;;;;;;5058418;28;20794;-62
2023/09/13 03:01:49;;;;;;;21.03;18.70;;;18.00;99.90;;;;;;5049480;28;20492;-62
2023/09/13 03:04:18;;;;;;;20.30;18.20;;;17.90;99.90;;;;;;5055331;28;20901;-61
2023/09/13 03:06:46;;;;;;;18.90;16.90;;;18.00;99.90;;;;;;5055441;28;20549;-61
2023/09/13 03:09:14;;;;;;;18.40;16.50;;;18.00;99.90;;;;;;5061082;28;20832;-60
2023/09/13 03:11:43;;;;;;;20.30;18.23;;;18.00;99.90;;;;;;5055665;28;21142;-62
2023/09/13 03:14:13;;;;;;;20.10;16.90;;;18.00;99.90;;;;;;5052756;28;20473;-62
2023/09/13 03:16:41;;;;;;;20.13;18.03;;;18.00;99.90;;;;;;5053104;28;20593;-61
2023/09/13 03:19:10;;;;;;;19.23;17.33;;;18.00;99.90;;;;;;5054494;28;20475;-62
2023/09/13 03:21:38;;;;;;;18.83;16.93;;;18.00;99.90;;;;;;5050316;28;21177;-61
2023/09/13 03:24:07;;;;;;;20.07;18.00;;;18.00;99.90;;;;;;5057168;28;20577;-62
2023/09/13 03:26:39;;;;;;;17.80;16.00;;;18.00;99.90;;;;;;5056764;28;20489;-61
2023/09/13 03:29:07;;;;;;;16.93;15.10;;;18.10;99.90;;;;;;5051453;28;20508;-62
2023/09/13 03:31:38;;;;;;;17.40;15.60;;;18.10;99.90;;;;;;5051603;28;20517;-61
2023/09/13 03:34:06;;;;;;;16.30;14.60;;;18.10;99.90;;;;;;5054431;28;20988;-62
2023/09/13 03:36:34;;;;;;;18.40;14.93;;;18.10;99.90;;;;;;5056327;28;21392;-62
2023/09/13 03:39:03;;;;;;;15.60;14.10;;;18.10;99.90;;;;;;5058665;28;20462;-62
2023/09/13 03:41:32;;;;;;;16.90;15.20;;;18.10;99.90;;;;;;5062932;28;20488;-62
2023/09/13 03:44:00;;;;;;;16.10;14.50;;;18.10;99.90;;;;;;5057619;28;20593;-62
2023/09/13 03:46:28;;;;;;;15.90;13.77;;;18.10;99.90;;;;;;5051985;28;22213;-62
2023/09/13 03:48:58;;;;;;;20.33;14.30;;;18.10;99.90;;;;;;5050055;28;20894;-62
2023/09/13 03:51:26;;;;;;;16.70;14.70;;;18.10;99.90;;;;;;5051338;28;20488;-61
2023/09/13 03:53:54;;;;;;;14.80;13.30;;;18.10;99.90;;;;;;5056900;28;20896;-62
2023/09/13 03:56:22;;;;;;;15.10;13.50;;;18.00;99.90;;;;;;5056447;28;20497;-62
2023/09/13 03:58:50;;;;;;;13.10;11.63;;;18.00;99.90;;;;;;5056177;28;21148;-61
2023/09/13 04:01:18;;;;;;;12.87;11.57;;;18.00;99.90;;;;;;5053526;28;20614;-62
2023/09/13 04:03:47;;;;;;;12.33;11.13;;;18.00;99.90;;;;;;5058910;28;20476;-62
2023/09/13 04:06:17;;;;;;;11.77;10.67;;;18.10;99.90;;;;;;5061045;28;20576;-62
2023/09/13 04:08:45;;;;;;;10.93;9.87;;;18.10;99.90;;;;;;5054622;28;20585;-62
2023/09/13 04:11:13;;;;;;;8.87;8.07;;;18.10;99.90;;;;;;5060892;28;20538;-60
2023/09/13 04:13:41;;;;;;;7.23;6.53;;;18.10;99.90;;;;;;5057985;28;21104;-62
2023/09/13 04:16:14;;;;;;;6.30;5.70;;;18.00;99.90;;;;;;5061321;28;20490;-61
2023/09/13 04:18:43;;;;;;;5.10;4.70;;;18.00;99.90;;;;;;5056677;28;20470;-62
2023/09/13 04:21:11;;;;;;;5.90;5.40;;;18.00;99.90;;;;;;5057986;28;21055;-61
2023/09/13 04:23:40;;;;;;;6.03;5.53;;;18.00;99.90;;;;;;5052430;28;21002;-62
2023/09/13 04:26:08;;;;;;;6.00;5.20;;;18.00;99.90;;;;;;5058307;28;20562;-62
2023/09/13 04:28:36;;;;;;;6.40;5.80;;;18.00;99.90;;;;;;5052971;28;20493;-62
2023/09/13 04:31:04;;;;;;;6.87;6.27;;;18.00;99.90;;;;;;5054388;28;20493;-62
2023/09/13 04:33:49;;;;;;;6.90;6.30;;;17.90;99.90;;;;;;5046900;28;20477;-62
2023/09/13 04:36:17;;;;;;;6.37;5.83;;;17.90;99.90;;;;;;5057595;28;20505;-62
2023/09/13 04:38:48;;;;;;;6.37;5.77;;;17.80;99.90;;;;;;5050202;28;20545;-62
2023/09/13 04:41:17;;;;;;;5.83;5.33;;;17.80;99.90;;;;;;5051983;28;20586;-62
2023/09/13 04:43:45;;;;;;;5.77;5.30;;;17.80;99.90;;;;;;5049899;28;20574;-62
2023/09/13 04:46:14;;;;;;;5.00;4.50;;;17.80;99.90;;;;;;5049960;28;20638;-61
2023/09/13 04:48:42;;;;;;;4.90;4.50;;;17.80;99.90;;;;;;5057273;28;20500;-61
2023/09/13 04:51:11;;;;;;;4.80;4.40;;;17.80;99.90;;;;;;5044069;28;20516;-61
2023/09/13 04:53:39;;;;;;;4.33;3.90;;;17.70;99.90;;;;;;5046516;28;21186;-62
2023/09/13 04:56:09;;;;;;;3.20;3.00;;;17.70;99.90;;;;;;5048625;28;20489;-62
2023/09/13 04:58:37;;;;;;;3.23;2.93;;;17.70;99.90;;;;;;5045736;28;20471;-60
2023/09/13 05:01:06;;;;;;;3.20;2.90;;;17.60;99.90;;;;;;5052982;28;20473;-60
2023/09/13 05:03:35;;;;;;;3.23;2.90;;;17.60;99.90;;;;;;5049818;28;20485;-59
2023/09/13 05:06:03;;;;;;;2.80;2.60;;;17.60;99.90;;;;;;5054709;28;20567;-60
2023/09/13 05:08:36;;;;;;;2.20;2.10;;;17.60;99.90;;;;;;5056314;28;20997;-61
2023/09/13 05:11:04;;;;;;;2.47;2.27;;;17.60;99.90;;;;;;5057423;28;20617;-60
2023/09/13 05:13:33;;;;;;;3.13;2.53;;;17.60;99.90;;;;;;5056264;28;20862;-60
2023/09/13 05:16:02;;;;;;;4.67;2.20;;;17.60;99.90;;;;;;5048447;28;20631;-59
2023/09/13 05:18:30;;;;;;;2.43;2.00;;;17.50;99.90;;;;;;5053646;28;20480;-60
2023/09/13 05:20:58;;;;;;;2.30;2.10;;;17.50;99.90;;;;;;5053168;28;20474;-61
2023/09/13 05:23:26;;;;;;;2.50;2.30;;;17.50;99.90;;;;;;5061516;28;20474;-61
2023/09/13 05:25:55;;;;;;;1.83;1.70;;;17.50;99.90;;;;;;5046037;28;20619;-60
2023/09/13 05:28:24;;;;;;;6.73;2.87;;;17.40;99.90;;;;;;5045074;28;20493;-60
2023/09/13 05:30:55;;;;;;;2.87;2.00;;;17.40;99.90;;;;;;5041145;28;20466;-61
2023/09/13 05:33:23;;;;;;;2.17;1.97;;;17.40;99.90;;;;;;5040805;28;20469;-61
2023/09/13 05:35:52;;;;;;;2.00;1.90;;;17.30;99.90;;;;;;5041151;28;20501;-60
2023/09/13 05:38:20;;;;;;;1.87;1.73;;;17.30;99.90;;;;;;5047182;28;20473;-59
2023/09/13 05:40:48;;;;;;;2.80;1.87;;;17.30;99.90;;;;;;5040370;28;20479;-60
2023/09/13 05:43:16;;;;;;;2.17;1.60;;;17.30;99.90;;;;;;5048670;28;20864;-60
2023/09/13 05:45:44;;;;;;;2.70;2.10;;;17.30;99.90;;;;;;5027042;28;20501;-61
2023/09/13 05:48:13;;;;;;;3.50;2.27;;;17.30;99.90;;;;;;5034436;28;20962;-60
2023/09/13 05:50:41;;;;;;;3.53;2.27;;;17.20;99.90;;;;;;5029380;28;20967;-60
2023/09/13 05:53:09;;;;;;;4.80;2.30;;;17.20;99.90;;;;;;5049254;28;20994;-59
2023/09/13 05:55:37;;;;;;;1.50;1.40;;;17.20;99.90;;;;;;5055266;28;20500;-60
2023/09/13 05:58:05;;;;;;;1.43;1.33;;;17.20;99.90;;;;;;5053683;28;20465;-60
2023/09/13 06:00:33;;;;;;;2.20;1.60;;;17.20;99.90;;;;;;5047758;28;20465;-60
2023/09/13 06:03:02;;;;;;;1.30;1.20;;;17.10;99.90;;;;;;5048270;28;20485;-60
2023/09/13 06:05:32;;;;;;;2.30;1.43;;;17.10;99.90;;;;;;5045062;28;20531;-60
2023/09/13 06:08:00;;;;;;;1.87;1.33;;;17.10;99.90;;;;;;5046391;28;20556;-60
2023/09/13 06:10:28;;;;;;;1.93;1.53;;;17.10;99.90;;;;;;5046804;28;20572;-61
2023/09/13 06:12:56;;;;;;;1.40;1.30;;;17.00;99.90;;;;;;5054137;28;20499;-61
2023/09/13 06:15:24;;;;;;;2.33;1.10;;;17.00;99.90;;;;;;5050276;28;20492;-61
2023/09/13 06:17:53;;;;;;;1.37;1.10;;;17.00;99.90;;;;;;5057892;28;20915;-61
2023/09/13 06:20:22;;;;;;;1.10;1.00;;;17.00;99.90;;;;;;5056062;28;20488;-61
2023/09/13 06:22:51;;;;;;;1.23;1.13;;;17.00;99.90;;;;;;5053011;28;20497;-61
2023/09/13 06:25:19;;;;;;;1.63;1.07;;;16.90;99.90;;;;;;5049965;28;21017;-60
2023/09/13 06:27:47;;;;;;;2.87;1.30;;;16.90;99.90;;;;;;5046891;28;21655;-60
2023/09/13 06:30:16;;;;;;;1.27;1.27;;;16.90;99.90;;;;;;5056586;28;20516;-61
2023/09/13 06:32:44;;;;;;;1.30;1.20;;;16.90;99.90;;;;;;5050964;28;20580;-61
2023/09/13 06:35:14;;;;;;;1.40;1.30;;;16.90;99.90;;;;;;5043357;28;20604;-61
2023/09/13 06:37:44;;;;;;;3.83;1.40;;;16.90;99.90;;;;;;5054898;28;20556;-62
2023/09/13 06:40:16;;;;;;;3.23;2.40;;;16.90;99.90;;;;;;5056948;28;20911;-60
2023/09/13 06:42:46;;;;;;;2.83;2.00;;;16.90;99.90;;;;;;5053202;28;20492;-61
2023/09/13 06:45:16;;;;;;;2.40;2.20;;;16.90;99.90;;;;;;5056099;28;20576;-61
2023/09/13 06:47:54;;;;;;;3.83;2.07;;;16.80;99.90;;;;;;5055457;28;20480;-61
2023/09/13 06:50:23;;;;;;;3.10;2.77;;;16.80;99.90;;;;;;5043043;28;20501;-60
2023/09/13 06:52:54;;;;;;;2.60;2.30;;;16.80;99.90;;;;;;5054981;28;20481;-61
2023/09/13 06:55:43;;;;;;;3.30;3.00;;;16.80;99.90;;;;;;5055323;28;20481;-60
2023/09/13 06:58:14;;;;;;;7.83;2.57;;;16.80;99.90;;;;;;5061322;28;20469;-60
2023/09/13 07:00:48;;;;;;;4.07;2.60;;;16.70;99.90;;;;;;5053151;28;20461;-60
2023/09/13 07:03:19;;;;;;;2.80;2.30;;;16.70;99.90;;;;;;5057145;28;20477;-61
2023/09/13 07:05:50;;;;;;;2.93;2.47;;;16.70;99.90;;;;;;5062161;28;21036;-61
2023/09/13 07:08:19;;;;;;;3.90;2.80;;;16.70;99.90;;;;;;5058573;28;20476;-61
2023/09/13 07:10:48;;;;;;;3.00;2.70;;;16.60;99.90;;;;;;5054073;28;20584;-61
2023/09/13 07:13:16;;;;;;;3.00;2.70;;;16.60;99.90;;;;;;5054846;28;20559;-60
2023/09/13 07:15:44;;;;;;;4.80;2.70;;;16.60;99.90;;;;;;5057663;28;20608;-61
2023/09/13 07:18:12;;;;;;;3.60;2.97;;;16.60;99.90;;;;;;5054775;28;20991;-60
2023/09/13 07:20:40;;;;;;;3.60;2.67;;;16.50;99.90;;;;;;5058883;28;21541;-61
2023/09/13 07:23:09;;;;;;;3.93;3.00;;;16.50;99.90;;;;;;5059836;28;20865;-61
2023/09/13 07:25:37;;;;;;;4.53;3.60;;;16.60;99.90;;;;;;5057946;28;20497;-61
2023/09/13 07:28:07;;;;;;;7.23;3.53;;;16.50;99.90;;;;;;5059876;28;20465;-61
2023/09/13 07:30:35;;;;;;;8.43;4.00;;;16.60;99.90;;;;;;5054731;28;20579;-60
2023/09/13 07:33:03;;;;;;;6.60;3.30;;;16.60;99.90;;;;;;5052690;28;20519;-60
2023/09/13 07:35:32;;;;;;;5.50;3.17;;;16.50;99.90;;;;;;5048462;28;20500;-61
2023/09/13 07:38:00;;;;;;;4.90;3.50;;;16.40;99.90;;;;;;5057564;28;20517;-61
2023/09/13 07:40:28;;;;;;;3.93;2.63;;;16.40;99.90;;;;;;5057232;28;20473;-59
2023/09/13 07:42:56;;;;;;;6.00;2.90;;;16.40;99.90;;;;;;5047434;28;20490;-61
2023/09/13 07:45:25;;;;;;;5.90;3.43;;;16.40;99.90;;;;;;5053942;28;20485;-59
2023/09/13 07:47:53;;;;;;;3.90;2.60;;;16.40;99.90;;;;;;5043617;28;20465;-61
2023/09/13 07:50:29;;;;;;;5.03;3.20;;;16.40;99.90;;;;;;5047774;28;20489;-63
2023/09/13 07:52:58;;;;;;;5.33;3.27;;;16.40;99.90;;;;;;5053770;28;20489;-60
2023/09/13 07:55:29;;;;;;;5.90;2.70;;;16.40;99.90;;;;;;5057897;28;20569;-60
2023/09/13 07:57:57;;;;;;;4.23;2.70;;;16.50;99.90;;;;;;5059403;28;20466;-59
2023/09/13 08:00:26;;;;;;;3.63;2.50;;;16.50;99.90;;;;;;5058385;28;20488;-59
2023/09/13 08:02:54;;;;;;;4.37;2.63;;;16.40;99.90;;;;;;5064695;28;20576;-61
2023/09/13 08:05:22;;;;;;;7.50;2.83;;;16.40;99.90;;;;;;5060115;28;20486;-60
2023/09/13 08:07:50;;;;;;;4.47;2.70;;;16.40;99.90;;;;;;5053066;28;20642;-61
2023/09/13 08:10:18;;;;;;;5.53;3.00;;;16.40;99.90;;;;;;5057544;28;20485;-60
2023/09/13 08:12:47;;;;;;;3.20;2.37;;;16.30;99.90;;;;;;5055091;28;20799;-61
2023/09/13 08:15:15;;;;;;;4.70;2.30;;;16.30;99.90;;;;;;5059958;28;20497;-59
2023/09/13 08:17:45;;;;;;;6.67;2.83;;;16.40;99.90;;;;;;5054393;28;20600;-61
2023/09/13 08:20:13;;;;;;;7.53;2.57;;;16.30;99.90;;;;;;5058577;28;20535;-60
2023/09/13 08:22:41;;;;;;;7.00;2.40;;;16.30;99.90;;;;;;5060812;28;20920;-60
2023/09/13 08:25:09;;;;;;;3.90;2.10;;;16.30;99.90;;;;;;5061807;28;20806;-61
2023/09/13 08:27:37;;;;;;;4.47;2.77;;;16.40;99.90;;;;;;5050849;28;20708;-61
2023/09/13 08:30:07;;;;;;;3.70;2.70;;;16.40;99.90;;;;;;5049878;28;20528;-61
2023/09/13 08:32:37;;;;;;;6.10;1.83;;;16.40;99.90;;;;;;5047940;28;20516;-60
2023/09/13 08:35:07;;;;;;;4.57;2.03;;;16.40;99.90;;;;;;5057262;28;21049;-61
2023/09/13 08:37:35;;;;;;;4.23;2.10;;;16.40;99.90;;;;;;5058315;28;20476;-61
2023/09/13 08:40:04;;;;;;;3.03;2.23;;;16.40;99.90;;;;;;5056529;28;20470;-60
2023/09/13 08:42:32;;;;;;;3.40;2.00;;;16.40;99.90;;;;;;5059544;28;20501;-59
2023/09/13 08:45:01;;;;;;;5.10;2.10;;;16.40;99.90;;;;;;5054482;28;20568;-61
2023/09/13 08:47:31;;;;;;;6.23;2.20;;;16.50;99.90;;;;;;5053709;28;20465;-61
2023/09/13 08:50:19;;;;;;;3.30;2.20;;;16.50;99.90;;;;;;5056517;28;20620;-61
2023/09/13 08:52:48;;;;;;;3.80;2.53;;;16.40;99.90;;;;;;5056133;28;20578;-61
2023/09/13 08:55:16;;;;;;;3.03;2.33;;;16.30;99.90;;;;;;5056614;28;20489;-60
2023/09/13 08:57:47;;;;;;;4.60;2.60;;;16.30;99.90;;;;;;5051911;28;20469;-61
2023/09/13 09:00:16;;;;;;;4.27;2.70;;;16.30;99.90;;;;;;5056032;28;20458;-61
2023/09/13 09:02:45;;;;;;;5.37;2.50;;;16.30;99.90;;;;;;5056676;28;21057;-61
2023/09/13 09:05:16;;;;;;;3.33;2.67;;;16.20;99.90;;;;;;5053613;28;20501;-60
2023/09/13 09:07:46;;;;;;;4.97;2.10;;;16.20;99.90;;;;;;5054671;28;20504;-61
2023/09/13 09:10:15;;;;;;;4.27;2.40;;;16.30;99.90;;;;;;5052552;28;20469;-61
2023/09/13 09:12:47;;;;;;;4.43;2.30;;;16.30;99.90;;;;;;5062645;28;20527;-60
2023/09/13 09:15:17;;;;;;;2.80;1.97;;;16.30;99.90;;;;;;5055000;28;20920;-61
2023/09/13 09:17:48;;;;;;;4.10;2.33;;;16.30;99.90;;;;;;5053569;28;20549;-60
2023/09/13 09:20:19;;;;;;;12.63;3.73;;;16.30;99.90;;;;;;5052567;28;20561;-61
2023/09/13 09:22:47;;;;;;;10.30;2.90;;;16.30;99.90;;;;;;5055454;28;20486;-61
2023/09/13 09:25:15;;;;;;;4.23;1.97;;;16.30;99.90;;;;;;5055296;28;20528;-61
2023/09/13 09:27:44;;;;;;;4.70;2.60;;;16.30;99.90;;;;;;5046491;28;21091;-60
2023/09/13 09:30:15;;;;;;;3.60;2.50;;;16.30;99.90;;;;;;5046766;28;20605;-61
2023/09/13 09:32:45;;;;;;;5.03;2.50;;;16.40;99.90;;;;;;5045555;28;20489;-61
2023/09/13 09:35:15;;;;;;;4.73;2.60;;;16.40;99.90;;;;;;5047939;28;20497;-60
2023/09/13 09:37:44;;;;;;;3.50;2.77;;;16.50;99.90;;;;;;5052449;28;20518;-60
2023/09/13 09:40:14;;;;;;;3.73;2.90;;;16.50;99.90;;;;;;5053235;28;20550;-61
2023/09/13 09:42:43;;;;;;;5.13;2.67;;;16.60;99.90;;;;;;5051058;28;20923;-61
2023/09/13 09:45:11;;;;;;;5.80;3.10;;;16.60;99.90;;;;;;5047556;28;21057;-61
2023/09/13 09:47:41;;;;;;;4.67;2.97;;;16.60;99.90;;;;;;5049484;28;20655;-61
2023/09/13 09:50:13;;;;;;;5.27;2.70;;;16.60;99.90;;;;;;5046360;28;20473;-60
2023/09/13 09:52:41;;;;;;;4.30;2.43;;;16.60;99.90;;;;;;5041670;28;20597;-61
2023/09/13 09:55:15;;;;;;;3.67;2.00;;;16.60;99.90;;;;;;5052435;28;20493;-61
2023/09/13 09:57:47;;;;;;;6.63;2.60;;;16.50;99.90;;;;;;5052181;28;20557;-61
2023/09/13 10:00:16;;;;;;;5.60;2.80;;;16.50;99.90;;;;;;5049809;28;20469;-61
2023/09/13 10:02:45;;;;;;;6.77;2.93;;;16.50;99.90;;;;;;5034784;28;21020;-61
2023/09/13 10:05:16;;;;;;;5.00;3.90;;;16.60;99.90;;;;;;5047490;28;20558;-61
2023/09/13 10:07:51;;;;;;;6.90;2.93;;;16.60;99.90;;;;;;5050860;28;21034;-61
2023/09/13 10:10:33;;;;;;;4.50;2.87;;;16.50;99.90;;;;;;5051920;28;20476;-60
2023/09/13 10:13:02;;;;;;;6.40;2.90;;;16.50;99.90;;;;;;5050060;28;20568;-61
2023/09/13 10:15:30;;;;;;;5.13;4.07;;;16.50;99.90;;;;;;5048682;28;20946;-63
2023/09/13 10:18:03;;;;;;;4.93;3.53;;;16.60;99.90;;;;;;5053837;28;20970;-63
2023/09/13 10:20:35;;;;;;;4.20;3.27;;;16.60;99.90;;;;;;5053076;28;20466;-63
2023/09/13 10:23:07;;;;;;;22.10;17.73;;;16.60;99.90;;;;;;5055784;28;20572;-64
2023/09/13 10:25:38;;;;;;;14.93;12.60;;;16.60;99.90;;;;;;5046523;28;20579;-63
2023/09/13 10:28:09;;;;;;;15.80;9.97;;;16.60;99.90;;;;;;5049139;28;20549;-62
2023/09/13 10:30:38;;;;;;;12.47;11.10;;;16.60;99.90;;;;;;5056263;28;20480;-61
2023/09/13 10:33:10;;;;;;;9.70;7.40;;;16.70;99.90;;;;;;5049960;28;20507;-62
2023/09/13 10:35:44;;;;;;;10.53;4.37;;;16.70;99.90;;;;;;5051922;28;20499;-63
2023/09/13 10:38:23;;;;;;;6.50;4.13;;;16.70;99.90;;;;;;5050616;28;20560;-61
2023/09/13 10:41:02;;;;;;;4.97;3.40;;;16.70;99.90;;;;;;5053147;28;20979;-60
2023/09/13 10:43:32;;;;;;;4.30;2.80;;;16.70;99.90;;;;;;5045821;28;20469;-64
2023/09/13 10:46:02;;;;;;;5.20;2.90;;;16.70;99.90;;;;;;5046046;28;20873;-61
2023/09/13 10:48:31;;;;;;;10.53;2.90;;;16.70;99.90;;;;;;5047081;28;20469;-61
2023/09/13 10:51:02;;;;;;;6.10;3.20;;;16.80;99.90;;;;;;5052066;28;20568;-60
2023/09/13 10:53:31;;;;;;;2.73;2.37;;;16.70;99.90;;;;;;5059577;28;20961;-60
2023/09/13 10:56:01;;;;;;;4.70;2.50;;;16.80;99.90;;;;;;5060680;28;20612;-61
2023/09/13 10:58:30;;;;;;;5.17;2.80;;;16.70;99.90;;;;;;5057256;28;20573;-61
2023/09/13 11:00:58;;;;;;;9.87;2.67;;;16.80;99.90;;;;;;5057895;28;20481;-60
2023/09/13 11:03:27;;;;;;;7.13;3.67;;;16.80;99.90;;;;;;5054396;28;20469;-61
2023/09/13 11:05:57;;;;;;;8.63;3.40;;;16.80;99.90;;;;;;5050330;28;20498;-59
2023/09/13 11:08:28;;;;;;;6.13;3.03;;;16.80;99.90;;;;;;5052935;28;20966;-61
2023/09/13 11:11:07;;;;;;;4.43;2.50;;;16.70;99.90;;;;;;5048175;28;20477;-64
2023/09/13 11:13:37;;;;;;;6.43;2.90;;;16.70;99.90;;;;;;5055636;28;20525;-60
2023/09/13 11:16:07;;;;;;;5.77;2.47;;;16.70;99.90;;;;;;5054502;28;21018;-61
2023/09/13 11:18:47;;;;;;;5.13;2.90;;;16.70;99.90;;;;;;5059577;28;20476;-63
2023/09/13 11:21:20;;;;;;;5.40;2.33;;;16.70;99.90;;;;;;5054789;28;20479;-64
2023/09/13 11:23:52;;;;;;;5.47;2.23;;;16.70;99.90;;;;;;5061359;28;20473;-64
2023/09/13 11:26:49;;;;;;;6.23;2.33;;;16.70;99.90;;;;;;5052975;28;20520;-64
2023/09/13 11:29:26;;;;;;;3.17;2.33;;;16.70;99.90;;;;;;5027870;28;20481;-66
2023/09/13 11:32:02;;;;;;;5.70;2.67;;;16.70;99.90;;;;;;5053016;28;20489;-64
2023/09/13 11:34:30;;;;;;;4.87;2.40;;;16.70;99.90;;;;;;5051545;28;20475;-65
2023/09/13 11:37:00;;;;;;;4.37;1.80;;;16.70;99.90;;;;;;5043484;28;20472;-63
2023/09/13 11:39:29;;;;;;;5.00;2.40;;;16.70;99.90;;;;;;5054209;28;20464;-65
2023/09/13 11:41:58;;;;;;;3.60;2.50;;;16.70;99.90;;;;;;5058577;28;20604;-64
2023/09/13 11:44:28;;;;;;;2.93;2.47;;;16.60;99.90;;;;;;5053614;28;20489;-64
2023/09/13 11:46:59;;;;;;;6.10;2.33;;;16.60;99.90;;;;;;5060729;28;20568;-60
2023/09/13 11:49:28;;;;;;;3.93;2.20;;;16.60;99.90;;;;;;5057852;28;20476;-62
2023/09/13 11:52:05;;;;;;;2.17;1.97;;;16.70;99.90;;;;;;5052835;28;20550;-64
2023/09/13 11:54:53;;;;;;;3.50;2.03;;;16.90;99.90;;;;;;5051497;28;20461;-62
2023/09/13 11:57:49;;;;;;;6.03;2.03;;;16.90;99.90;;;;;;5059037;28;21320;-62
2023/09/13 12:00:26;;;;;;;4.30;2.30;;;17.00;99.90;;;;;;5038164;28;20465;-61
2023/09/13 12:02:56;;;;;;;5.27;2.27;;;17.10;99.90;;;;;;5052660;28;20542;-62
2023/09/13 12:05:29;;;;;;;8.70;1.97;;;17.10;99.90;;;;;;5056805;28;22464;-60
2023/09/13 12:08:22;;;;;;;6.47;2.10;;;17.10;99.90;;;;;;5055135;28;20457;-61
2023/09/13 12:10:54;;;;;;;2.50;2.10;;;17.00;99.90;;;;;;5049508;28;20520;-61
2023/09/13 12:13:41;;;;;;;8.37;2.93;;;17.00;99.90;;;;;;5052472;28;20528;-61
2023/09/13 12:16:31;;;;;;;6.63;2.20;;;16.90;99.90;;;;;;5055080;28;20470;-61
2023/09/13 12:18:59;;;;;;;9.03;3.00;;;17.00;99.90;;;;;;5045637;28;20470;-61
2023/09/13 12:21:28;;;;;;;3.53;2.00;;;16.90;99.90;;;;;;5050427;28;20569;-61
2023/09/13 12:23:56;;;;;;;4.00;2.00;;;16.90;99.90;;;;;;5053745;28;20476;-62
2023/09/13 12:26:25;;;;;;;5.00;2.27;;;16.80;99.90;;;;;;5060449;28;20501;-61
2023/09/13 12:28:54;;;;;;;5.03;2.17;;;16.70;99.90;;;;;;5060377;28;20571;-61
2023/09/13 12:31:22;;;;;;;4.57;2.23;;;16.70;99.90;;;;;;5052591;28;20489;-61
2023/09/13 12:33:52;;;;;;;5.53;2.10;;;16.60;99.90;;;;;;5052222;28;20517;-62
2023/09/13 12:36:20;;;;;;;4.43;2.30;;;16.50;99.90;;;;;;5049583;28;20580;-61
2023/09/13 12:38:50;;;;;;;3.90;2.60;;;16.40;99.90;;;;;;5051010;28;21063;-62
2023/09/13 12:41:20;;;;;;;4.30;2.17;;;16.40;99.90;;;;;;5048380;28;20966;-60
2023/09/13 12:43:50;;;;;;;3.93;2.70;;;16.30;99.90;;;;;;5051859;28;20563;-59
2023/09/13 12:46:20;;;;;;;4.73;2.10;;;16.20;99.90;;;;;;5054211;28;20494;-60
2023/09/13 12:48:50;;;;;;;2.07;1.80;;;16.20;99.90;;;;;;5051172;28;20470;-60
2023/09/13 12:51:22;;;;;;;3.77;1.80;;;16.20;99.90;;;;;;5043763;28;20478;-60
2023/09/13 12:53:51;;;;;;;6.03;2.20;;;16.20;99.90;;;;;;5047073;28;20485;-60
2023/09/13 12:56:20;;;;;;;3.33;2.10;;;16.20;99.90;;;;;;5056629;28;21101;-60